Time;durP1;ratioP1;P1;durP2;ratioP2;P2;SDS_P1;SDS_P2;PMS_P1;PMS_P2;Temp;Humidity;BMP_temperature;BMP_pressure;BME280_temperature;BME280_humidity;BME280_pressure;Samples;Min_cycle;Max_cycle;Signal;HPM_P1;HPM_P2
2022/11/22 00:00:48;;;;;;;6.07;5.50;;;5.80;99.90;;;;;;5122930;27;20644;-68
2022/11/22 00:05:51;;;;;;;7.23;5.20;;;5.80;99.90;;;;;;5151162;27;21055;-65
2022/11/22 00:08:16;;;;;;;5.60;5.20;;;5.70;99.90;;;;;;5136663;27;20212;-66
2022/11/22 00:10:42;;;;;;;7.03;4.97;;;5.70;99.90;;;;;;5109551;28;20184;-66
2022/11/22 00:13:08;;;;;;;5.90;5.30;;;5.70;99.90;;;;;;5108650;28;20192;-65
2022/11/22 00:15:34;;;;;;;5.90;5.27;;;5.70;99.90;;;;;;5008288;28;1406272;-65
2022/11/22 00:18:00;;;;;;;5.60;5.20;;;5.70;99.90;;;;;;4973827;28;20671;-65
2022/11/22 00:20:26;;;;;;;5.20;4.80;;;5.80;99.90;;;;;;4973966;28;20271;-65
2022/11/22 00:22:51;;;;;;;5.70;5.20;;;5.80;99.90;;;;;;4973869;28;20234;-65
2022/11/22 00:25:17;;;;;;;6.27;5.37;;;5.80;99.90;;;;;;4991046;28;20669;-65
2022/11/22 00:27:43;;;;;;;5.97;5.37;;;5.80;99.90;;;;;;4991142;28;20180;-65
2022/11/22 00:30:09;;;;;;;6.27;5.20;;;5.80;99.90;;;;;;4973537;28;20279;-65
2022/11/22 00:32:35;;;;;;;5.50;4.90;;;5.80;99.90;;;;;;4973650;28;20187;-65
2022/11/22 00:35:01;;;;;;;5.80;5.00;;;5.80;99.90;;;;;;4991212;28;20181;-65
2022/11/22 00:37:26;;;;;;;5.37;4.90;;;5.80;99.90;;;;;;4990969;28;20729;-65
2022/11/22 00:39:52;;;;;;;5.27;4.80;;;5.80;99.90;;;;;;4990848;28;20729;-65
2022/11/22 00:42:18;;;;;;;5.90;5.40;;;5.90;99.90;;;;;;4990854;28;20584;-65
2022/11/22 00:44:43;;;;;;;5.60;5.10;;;5.90;99.90;;;;;;4991053;28;20208;-65
2022/11/22 00:47:09;;;;;;;7.60;5.23;;;5.90;99.90;;;;;;4990819;28;20172;-65
2022/11/22 00:49:35;;;;;;;5.20;4.90;;;5.90;99.90;;;;;;4973519;28;20203;-65
2022/11/22 00:52:00;;;;;;;7.53;5.33;;;5.90;99.90;;;;;;4990940;28;20255;-66
2022/11/22 00:54:26;;;;;;;5.33;5.00;;;5.90;99.90;;;;;;4991006;28;20264;-65
2022/11/22 00:56:52;;;;;;;6.50;4.80;;;5.90;99.90;;;;;;4990568;28;20180;-65
2022/11/22 00:59:18;;;;;;;5.53;4.57;;;5.90;99.90;;;;;;4973328;28;20292;-65
2022/11/22 01:01:43;;;;;;;5.57;4.77;;;5.90;99.90;;;;;;4973153;28;20180;-65
2022/11/22 01:04:09;;;;;;;5.40;5.00;;;5.90;99.90;;;;;;4973059;28;20650;-65
2022/11/22 01:06:35;;;;;;;5.10;4.70;;;5.90;99.90;;;;;;5005431;28;20564;-65
2022/11/22 01:09:00;;;;;;;5.00;4.70;;;5.90;99.90;;;;;;4990420;28;20673;-65
2022/11/22 01:11:26;;;;;;;5.20;4.80;;;5.90;99.90;;;;;;4990274;28;20203;-65
2022/11/22 01:13:52;;;;;;;5.63;5.03;;;5.90;99.90;;;;;;4990655;28;20180;-65
2022/11/22 01:16:18;;;;;;;5.60;4.93;;;6.00;99.90;;;;;;5005777;28;20206;-65
2022/11/22 01:18:44;;;;;;;5.60;5.00;;;5.90;99.90;;;;;;5036247;28;20563;-65
2022/11/22 01:21:10;;;;;;;5.47;5.07;;;5.90;99.90;;;;;;5036034;28;20178;-65
2022/11/22 01:23:36;;;;;;;4.83;4.50;;;5.90;99.90;;;;;;5036002;28;20171;-65
2022/11/22 01:26:02;;;;;;;5.83;4.73;;;6.00;99.90;;;;;;5018140;28;20182;-65
2022/11/22 01:28:28;;;;;;;7.33;5.20;;;6.00;99.90;;;;;;5035866;28;20195;-65
2022/11/22 01:30:54;;;;;;;5.83;5.33;;;6.00;99.90;;;;;;5018174;28;20182;-65
2022/11/22 01:33:20;;;;;;;6.10;4.80;;;6.00;99.90;;;;;;5035774;28;20175;-65
2022/11/22 01:35:46;;;;;;;5.17;4.67;;;6.00;99.90;;;;;;5035957;28;20250;-65
2022/11/22 01:38:12;;;;;;;5.33;4.83;;;6.10;99.90;;;;;;5017757;28;20398;-65
2022/11/22 01:40:38;;;;;;;4.70;4.40;;;6.10;99.90;;;;;;5035680;28;20536;-65
2022/11/22 01:43:10;;;;;;;5.23;4.83;;;6.00;99.90;;;;;;5017822;28;20233;-65
2022/11/22 01:45:40;;;;;;;5.10;4.63;;;6.00;99.90;;;;;;5017667;28;20217;-65
2022/11/22 01:48:12;;;;;;;5.80;4.90;;;6.00;99.90;;;;;;5034185;28;20163;-65
2022/11/22 01:50:41;;;;;;;6.03;5.00;;;6.00;99.90;;;;;;5035258;28;20175;-65
2022/11/22 01:53:12;;;;;;;5.87;4.80;;;6.00;99.90;;;;;;5035433;28;20171;-65
2022/11/22 01:55:39;;;;;;;5.63;5.13;;;6.10;99.90;;;;;;5035744;28;20281;-65
2022/11/22 01:58:05;;;;;;;5.23;4.73;;;6.10;99.90;;;;;;5033887;28;20183;-65
2022/11/22 02:00:30;;;;;;;5.73;5.20;;;6.10;99.90;;;;;;5035097;28;20179;-65
2022/11/22 02:03:00;;;;;;;5.40;5.00;;;6.10;99.90;;;;;;5035056;28;20735;-65
2022/11/22 02:05:30;;;;;;;5.70;5.17;;;6.10;99.90;;;;;;5035235;28;20187;-65
2022/11/22 02:08:07;;;;;;;5.50;5.00;;;6.10;99.90;;;;;;5034796;28;20167;-65
2022/11/22 02:10:36;;;;;;;6.30;5.73;;;6.10;99.90;;;;;;5033587;28;20170;-65
2022/11/22 02:13:02;;;;;;;8.17;4.80;;;6.10;99.90;;;;;;5035125;28;20210;-65
2022/11/22 02:15:28;;;;;;;6.03;4.90;;;6.10;99.90;;;;;;5037397;28;20225;-66
2022/11/22 02:17:56;;;;;;;5.63;5.13;;;6.20;99.90;;;;;;5074562;28;20221;-66
2022/11/22 02:20:22;;;;;;;5.60;5.03;;;6.20;99.90;;;;;;5074898;28;20166;-65
2022/11/22 02:23:06;;;;;;;6.50;5.90;;;6.20;99.90;;;;;;5056584;28;20184;-65
2022/11/22 02:25:41;;;;;;;5.43;5.03;;;6.10;99.90;;;;;;5074674;28;20254;-65
2022/11/22 02:28:12;;;;;;;6.90;4.93;;;6.10;99.90;;;;;;5073547;28;20170;-65
2022/11/22 02:30:39;;;;;;;5.47;5.07;;;6.10;99.90;;;;;;5056593;28;20174;-65
2022/11/22 02:33:06;;;;;;;7.90;5.30;;;6.10;99.90;;;;;;5056256;28;20177;-65
2022/11/22 02:35:32;;;;;;;7.43;5.30;;;6.10;99.90;;;;;;5074090;28;20291;-65
2022/11/22 02:38:03;;;;;;;5.40;4.90;;;6.10;99.90;;;;;;5059068;28;20301;-65
2022/11/22 02:40:35;;;;;;;6.87;5.43;;;6.10;99.90;;;;;;5094427;28;20242;-65
2022/11/22 02:43:17;;;;;;;6.40;5.77;;;6.10;99.90;;;;;;5094677;28;20503;-65
2022/11/22 02:45:43;;;;;;;5.80;5.30;;;6.10;99.90;;;;;;5094228;28;20634;-65
2022/11/22 02:48:11;;;;;;;7.87;5.27;;;6.10;99.90;;;;;;5075891;28;20173;-65
2022/11/22 02:50:37;;;;;;;6.27;5.30;;;6.10;99.90;;;;;;5075795;28;20184;-65
2022/11/22 02:53:04;;;;;;;8.47;5.20;;;6.10;99.90;;;;;;5094157;28;20203;-65
2022/11/22 02:55:29;;;;;;;5.80;5.30;;;6.10;99.90;;;;;;5094013;28;20219;-65
2022/11/22 02:57:55;;;;;;;7.43;5.40;;;6.10;99.90;;;;;;5094195;28;20181;-66
2022/11/22 03:00:21;;;;;;;6.40;5.33;;;6.10;99.90;;;;;;5093957;28;20265;-65
2022/11/22 03:02:47;;;;;;;7.43;5.40;;;6.10;99.90;;;;;;5094225;28;20637;-65
2022/11/22 03:05:13;;;;;;;12.13;5.33;;;6.20;99.90;;;;;;5094042;28;20192;-65
2022/11/22 03:07:39;;;;;;;6.30;5.70;;;6.20;99.90;;;;;;5075507;28;20591;-66
2022/11/22 03:10:05;;;;;;;7.17;5.57;;;6.20;99.90;;;;;;5093961;28;20197;-65
2022/11/22 03:12:31;;;;;;;6.30;5.70;;;6.20;99.90;;;;;;5075551;28;20583;-65
2022/11/22 03:14:56;;;;;;;7.83;5.70;;;6.20;99.90;;;;;;5072640;28;20176;-66
2022/11/22 03:17:22;;;;;;;10.93;5.63;;;6.30;99.90;;;;;;5035538;28;20659;-65
2022/11/22 03:19:48;;;;;;;7.30;6.07;;;6.30;99.90;;;;;;5053228;28;20201;-65
2022/11/22 03:22:13;;;;;;;6.93;5.90;;;6.20;99.90;;;;;;5053181;28;20542;-65
2022/11/22 03:24:39;;;;;;;8.10;6.10;;;6.30;99.90;;;;;;5053768;28;20205;-65
2022/11/22 03:27:05;;;;;;;7.63;5.80;;;6.30;99.90;;;;;;5053330;28;20178;-65
2022/11/22 03:29:31;;;;;;;13.00;5.80;;;6.30;99.90;;;;;;5035538;28;20202;-65
2022/11/22 03:31:56;;;;;;;7.03;5.70;;;6.30;99.90;;;;;;5035474;28;20180;-64
2022/11/22 03:34:22;;;;;;;10.00;6.23;;;6.30;99.90;;;;;;5053277;28;20178;-65
2022/11/22 03:36:48;;;;;;;9.83;6.13;;;6.30;99.90;;;;;;5053372;28;20269;-64
2022/11/22 03:39:14;;;;;;;6.90;6.03;;;6.30;99.90;;;;;;5053005;28;20202;-64
2022/11/22 03:41:40;;;;;;;10.10;6.07;;;6.30;99.90;;;;;;5035704;28;20224;-64
2022/11/22 03:44:06;;;;;;;10.53;6.03;;;6.20;99.90;;;;;;5053776;28;20671;-64
2022/11/22 03:46:32;;;;;;;8.33;5.90;;;6.20;99.90;;;;;;5053041;28;20177;-64
2022/11/22 03:48:57;;;;;;;9.17;6.80;;;6.20;99.90;;;;;;5035314;28;20667;-65
2022/11/22 03:51:23;;;;;;;9.37;5.97;;;6.20;99.90;;;;;;5053088;28;20261;-65
2022/11/22 03:53:49;;;;;;;7.53;5.93;;;6.20;99.90;;;;;;5035065;28;20178;-64
2022/11/22 03:56:14;;;;;;;9.57;6.23;;;6.20;99.90;;;;;;5053601;28;20159;-64
2022/11/22 03:58:40;;;;;;;6.77;6.07;;;6.20;99.90;;;;;;5035092;28;20262;-65
2022/11/22 04:01:06;;;;;;;12.93;5.87;;;6.30;99.90;;;;;;5052983;28;20182;-65
2022/11/22 04:03:32;;;;;;;10.90;6.47;;;6.20;99.90;;;;;;5053447;28;20167;-64
2022/11/22 04:05:57;;;;;;;7.00;6.10;;;6.20;99.90;;;;;;5052906;28;20536;-64
2022/11/22 04:08:23;;;;;;;9.23;6.33;;;6.20;99.90;;;;;;5052775;28;20579;-64
2022/11/22 04:10:50;;;;;;;7.30;5.70;;;6.30;99.90;;;;;;5053115;28;20174;-65
2022/11/22 04:13:17;;;;;;;9.30;6.10;;;6.30;99.90;;;;;;5053053;28;20662;-65
2022/11/22 04:15:42;;;;;;;8.17;6.13;;;6.30;99.90;;;;;;5034738;28;20191;-65
2022/11/22 04:18:13;;;;;;;8.60;6.07;;;6.30;99.90;;;;;;5034603;28;20219;-65
2022/11/22 04:23:25;;;;;;;10.23;6.17;;;6.30;99.90;;;;;;5052956;28;20646;-64
2022/11/22 04:25:52;;;;;;;12.80;6.37;;;6.30;99.90;;;;;;5052727;28;20205;-64
2022/11/22 04:28:21;;;;;;;12.60;6.33;;;6.30;99.90;;;;;;5052880;28;20186;-65
2022/11/22 04:33:33;;;;;;;7.47;5.53;;;6.30;99.90;;;;;;5053313;28;20161;-64
2022/11/22 04:35:59;;;;;;;9.83;6.03;;;6.30;99.90;;;;;;5034637;28;20202;-65
2022/11/22 04:38:24;;;;;;;9.93;5.37;;;6.30;99.90;;;;;;5052361;28;20745;-65
2022/11/22 04:40:51;;;;;;;12.63;6.23;;;6.20;99.90;;;;;;5052870;28;20612;-65
2022/11/22 04:46:13;;;;;;;10.30;5.57;;;6.20;99.90;;;;;;5053306;28;20250;-65
2022/11/22 04:48:39;;;;;;;7.03;5.03;;;6.20;99.90;;;;;;5052753;28;20582;-65
2022/11/22 04:53:51;;;;;;;15.80;5.87;;;6.20;99.90;;;;;;5056831;28;20169;-65
2022/11/22 04:56:17;;;;;;;11.77;6.37;;;6.20;99.90;;;;;;5056399;28;20572;-65
2022/11/22 04:58:42;;;;;;;6.90;5.10;;;6.20;99.90;;;;;;5056198;28;20195;-65
2022/11/22 05:01:09;;;;;;;13.57;5.87;;;6.20;99.90;;;;;;5056480;28;20171;-64
2022/11/22 05:03:34;;;;;;;13.10;5.60;;;6.20;99.90;;;;;;5038402;28;20179;-65
2022/11/22 05:06:02;;;;;;;11.33;5.90;;;6.20;99.90;;;;;;5056140;28;20647;-65
2022/11/22 05:08:28;;;;;;;11.10;5.47;;;6.10;99.90;;;;;;5055919;28;20738;-65
2022/11/22 05:10:57;;;;;;;11.20;5.57;;;6.10;99.90;;;;;;5055942;28;20201;-65
2022/11/22 05:13:23;;;;;;;11.60;5.80;;;6.10;99.90;;;;;;5038003;28;20181;-65
2022/11/22 05:15:52;;;;;;;8.03;5.40;;;6.10;99.90;;;;;;5048267;28;20194;-65
2022/11/22 05:18:19;;;;;;;12.97;6.13;;;6.00;99.90;;;;;;5018036;28;20194;-65
2022/11/22 05:20:45;;;;;;;9.20;5.37;;;6.00;99.90;;;;;;5035771;28;20270;-65
2022/11/22 05:25:56;;;;;;;10.70;5.93;;;6.00;99.90;;;;;;5035757;28;20742;-64
2022/11/22 05:28:22;;;;;;;14.10;5.70;;;5.90;99.90;;;;;;5035920;28;20373;-67
2022/11/22 05:30:47;;;;;;;8.70;5.57;;;5.90;99.90;;;;;;5035485;28;20175;-67
2022/11/22 05:33:13;;;;;;;7.17;5.40;;;5.90;99.90;;;;;;5017714;28;20629;-67
2022/11/22 05:35:39;;;;;;;13.07;5.50;;;5.80;99.90;;;;;;5035541;28;20175;-67
2022/11/22 05:38:05;;;;;;;8.90;5.33;;;5.80;99.90;;;;;;5035201;28;20234;-67
2022/11/22 05:40:30;;;;;;;14.43;5.47;;;5.80;99.90;;;;;;5017453;28;20586;-67
2022/11/22 05:42:58;;;;;;;7.87;5.60;;;5.70;99.90;;;;;;5035405;28;20182;-67
2022/11/22 05:45:23;;;;;;;11.30;5.53;;;5.70;99.90;;;;;;5017761;28;20203;-67
2022/11/22 05:47:49;;;;;;;11.60;5.63;;;5.70;99.90;;;;;;5017510;28;20182;-68
2022/11/22 05:50:15;;;;;;;6.67;5.40;;;5.70;99.90;;;;;;5035235;28;20195;-71
2022/11/22 05:52:41;;;;;;;7.17;5.60;;;5.60;99.90;;;;;;5035316;28;20203;-69
2022/11/22 05:55:07;;;;;;;11.33;5.20;;;5.60;99.90;;;;;;5017480;28;20522;-69
2022/11/22 05:57:33;;;;;;;11.23;5.83;;;5.60;99.90;;;;;;5035235;28;20274;-69
2022/11/22 05:59:58;;;;;;;11.73;5.70;;;5.50;99.90;;;;;;5035285;28;20541;-70
2022/11/22 06:02:25;;;;;;;6.80;5.07;;;5.50;99.90;;;;;;5017006;28;20194;-68
2022/11/22 06:04:50;;;;;;;13.90;6.17;;;5.50;99.90;;;;;;5017218;28;20230;-68
2022/11/22 06:07:16;;;;;;;11.33;5.97;;;5.40;99.90;;;;;;5034765;28;20210;-68
2022/11/22 06:09:42;;;;;;;6.27;5.10;;;5.40;99.90;;;;;;5034805;28;20264;-68
2022/11/22 06:12:08;;;;;;;7.50;5.40;;;5.40;99.90;;;;;;5034749;28;20175;-68
2022/11/22 06:14:34;;;;;;;11.13;5.23;;;5.40;99.90;;;;;;5034643;28;20179;-68
2022/11/22 06:17:00;;;;;;;9.27;5.03;;;5.30;99.90;;;;;;5034605;28;20198;-68
2022/11/22 06:19:25;;;;;;;7.27;5.37;;;5.30;99.90;;;;;;5034662;28;20210;-68
2022/11/22 06:21:51;;;;;;;10.07;5.50;;;5.20;99.90;;;;;;5016670;28;20182;-68
2022/11/22 06:24:17;;;;;;;9.23;5.53;;;5.10;99.90;;;;;;5034706;28;20191;-68
2022/11/22 06:26:43;;;;;;;5.73;5.10;;;5.10;99.90;;;;;;5034561;28;20657;-68
2022/11/22 06:29:08;;;;;;;9.77;5.33;;;5.00;99.90;;;;;;5034403;28;20207;-68
2022/11/22 06:31:34;;;;;;;8.47;5.60;;;5.00;99.90;;;;;;5016660;28;20175;-68
2022/11/22 06:34:00;;;;;;;6.83;4.93;;;4.90;99.90;;;;;;5016639;28;20187;-68
2022/11/22 06:36:31;;;;;;;8.43;5.97;;;4.90;99.90;;;;;;5034333;28;20175;-68
2022/11/22 06:38:57;;;;;;;10.90;5.97;;;4.90;99.90;;;;;;5034237;28;20203;-68
2022/11/22 06:41:26;;;;;;;10.57;6.23;;;4.80;99.90;;;;;;5034826;28;20598;-68
2022/11/22 06:43:54;;;;;;;6.83;5.67;;;4.70;99.90;;;;;;5034202;28;20175;-68
2022/11/22 06:46:22;;;;;;;10.03;5.87;;;4.70;99.90;;;;;;5016390;28;20676;-68
2022/11/22 06:48:48;;;;;;;12.10;5.50;;;4.70;99.90;;;;;;5034071;28;20565;-68
2022/11/22 06:51:17;;;;;;;8.47;5.10;;;4.70;99.90;;;;;;5016319;28;20178;-67
2022/11/22 06:53:43;;;;;;;11.23;6.03;;;4.70;99.90;;;;;;5016629;28;20175;-67
2022/11/22 06:56:21;;;;;;;9.83;5.60;;;4.60;99.90;;;;;;5016971;28;20164;-65
2022/11/22 06:58:49;;;;;;;10.77;5.60;;;4.60;99.90;;;;;;5016342;28;20195;-65
2022/11/22 07:01:20;;;;;;;8.10;5.50;;;4.60;99.90;;;;;;5033950;28;20172;-65
2022/11/22 07:03:47;;;;;;;7.83;5.77;;;4.50;99.90;;;;;;5033775;28;20243;-65
2022/11/22 07:06:15;;;;;;;11.70;5.67;;;4.50;99.90;;;;;;5033720;28;20325;-65
2022/11/22 07:08:42;;;;;;;14.37;6.07;;;4.50;99.90;;;;;;5012581;28;20262;-65
2022/11/22 07:11:16;;;;;;;9.27;5.23;;;4.50;99.90;;;;;;4996266;28;20184;-65
2022/11/22 07:13:42;;;;;;;9.87;5.80;;;4.50;99.90;;;;;;5013709;28;20567;-65
2022/11/22 07:16:11;;;;;;;7.03;5.10;;;4.50;99.90;;;;;;5012986;28;20230;-65
2022/11/22 07:18:37;;;;;;;7.83;5.27;;;4.50;99.90;;;;;;5033776;28;20226;-65
2022/11/22 07:21:05;;;;;;;7.07;5.40;;;4.50;99.90;;;;;;5032502;28;20202;-65
2022/11/22 07:23:31;;;;;;;10.80;5.37;;;4.50;99.90;;;;;;5032491;28;20678;-65
2022/11/22 07:25:57;;;;;;;7.10;5.70;;;4.40;99.90;;;;;;5032415;28;20210;-65
2022/11/22 07:28:24;;;;;;;7.90;5.83;;;4.40;99.90;;;;;;5034433;28;20520;-65
2022/11/22 07:30:50;;;;;;;12.93;6.63;;;4.40;99.90;;;;;;5033675;28;20655;-65
2022/11/22 07:33:15;;;;;;;15.73;6.43;;;4.40;99.90;;;;;;5033887;28;20175;-65
2022/11/22 07:35:41;;;;;;;14.27;6.47;;;4.40;99.90;;;;;;5033531;28;20648;-65
2022/11/22 07:38:07;;;;;;;10.03;5.83;;;4.40;99.90;;;;;;5037735;28;20179;-65
2022/11/22 07:40:33;;;;;;;7.80;5.47;;;4.40;99.90;;;;;;5053600;28;20175;-65
2022/11/22 07:42:58;;;;;;;8.50;5.80;;;4.40;99.90;;;;;;5053469;28;20178;-65
2022/11/22 07:45:25;;;;;;;7.13;5.63;;;4.30;99.90;;;;;;5053486;28;20209;-65
2022/11/22 07:47:50;;;;;;;9.93;5.97;;;4.30;99.90;;;;;;5053718;28;20179;-67
2022/11/22 07:50:16;;;;;;;11.17;5.80;;;4.30;99.90;;;;;;5053503;28;20201;-67
2022/11/22 07:52:42;;;;;;;5.90;5.30;;;4.40;99.90;;;;;;5052264;28;20652;-67
2022/11/22 07:55:08;;;;;;;7.03;5.10;;;4.40;99.90;;;;;;5054021;28;20217;-68
2022/11/22 07:57:34;;;;;;;10.87;5.53;;;4.40;99.90;;;;;;5053571;28;20175;-68
2022/11/22 07:59:59;;;;;;;9.30;5.47;;;4.50;99.90;;;;;;5052146;28;20208;-67
2022/11/22 08:02:25;;;;;;;11.23;6.00;;;4.50;99.90;;;;;;5053553;28;20232;-68
2022/11/22 08:04:52;;;;;;;11.33;5.70;;;4.50;99.90;;;;;;5052050;28;20299;-68
2022/11/22 08:07:17;;;;;;;10.80;6.23;;;4.50;99.90;;;;;;5053025;28;20173;-70
2022/11/22 08:09:43;;;;;;;11.47;5.90;;;4.60;99.90;;;;;;5053107;28;20281;-68
2022/11/22 08:12:09;;;;;;;11.13;5.80;;;4.60;99.90;;;;;;5053456;28;20178;-68
2022/11/22 08:14:35;;;;;;;11.50;5.67;;;4.70;99.90;;;;;;5053089;28;20178;-68
2022/11/22 08:17:01;;;;;;;8.90;5.90;;;4.70;99.90;;;;;;5035835;28;20218;-68
2022/11/22 08:19:29;;;;;;;14.33;5.83;;;4.70;99.90;;;;;;5033356;28;20194;-68
2022/11/22 08:21:54;;;;;;;12.23;5.77;;;4.80;99.90;;;;;;5033079;28;20178;-68
2022/11/22 08:24:20;;;;;;;10.13;5.80;;;4.90;99.90;;;;;;5015403;28;20214;-68
2022/11/22 08:26:46;;;;;;;13.53;5.47;;;5.10;99.90;;;;;;5017875;28;20179;-68
2022/11/22 08:29:12;;;;;;;8.93;5.60;;;5.30;99.90;;;;;;5019439;28;20202;-68
2022/11/22 08:31:38;;;;;;;10.00;5.83;;;5.50;99.90;;;;;;5037241;28;20706;-68
2022/11/22 08:34:05;;;;;;;9.63;5.77;;;5.50;99.90;;;;;;5037092;28;20655;-68
2022/11/22 08:36:31;;;;;;;9.37;6.20;;;5.60;99.90;;;;;;5019214;28;20213;-68
2022/11/22 08:38:56;;;;;;;9.23;5.57;;;5.70;99.90;;;;;;5016222;28;20582;-68
2022/11/22 08:41:22;;;;;;;7.93;5.60;;;5.80;99.90;;;;;;5017539;28;20183;-68
2022/11/22 08:43:50;;;;;;;9.23;5.80;;;5.90;99.90;;;;;;4999573;28;20716;-68
2022/11/22 08:46:16;;;;;;;10.60;5.43;;;6.00;99.90;;;;;;5017019;28;20183;-68
2022/11/22 08:48:42;;;;;;;7.73;5.50;;;6.00;99.90;;;;;;5017330;28;20666;-68
2022/11/22 08:51:09;;;;;;;12.30;5.70;;;6.20;99.90;;;;;;4999352;28;20186;-68
2022/11/22 08:53:38;;;;;;;9.57;5.87;;;6.20;99.90;;;;;;5017374;28;20619;-68
2022/11/22 08:56:06;;;;;;;6.53;5.50;;;6.20;99.90;;;;;;5017347;28;20180;-68
2022/11/22 08:58:32;;;;;;;12.90;5.40;;;6.30;99.90;;;;;;4999237;28;20200;-68
2022/11/22 09:01:10;;;;;;;9.10;5.30;;;6.40;99.90;;;;;;5016942;28;20548;-68
2022/11/22 09:03:36;;;;;;;11.40;6.00;;;6.40;99.90;;;;;;5016751;28;20163;-68
2022/11/22 09:06:08;;;;;;;8.07;6.17;;;6.50;99.90;;;;;;5016600;28;20212;-68
2022/11/22 09:08:35;;;;;;;8.97;5.67;;;6.50;99.90;;;;;;5024547;28;20211;-68
2022/11/22 09:11:06;;;;;;;10.97;5.50;;;6.60;99.90;;;;;;5018719;28;20187;-68
2022/11/22 09:13:32;;;;;;;9.30;5.20;;;6.70;99.90;;;;;;5036651;28;20164;-68
2022/11/22 09:16:03;;;;;;;6.30;5.67;;;6.70;99.90;;;;;;5032326;28;20626;-68
2022/11/22 09:18:28;;;;;;;6.03;5.00;;;6.70;99.90;;;;;;5056105;28;20210;-68
2022/11/22 09:21:03;;;;;;;17.30;5.03;;;6.70;99.90;;;;;;5056115;28;20594;-68
2022/11/22 09:23:28;;;;;;;9.03;5.17;;;6.80;99.90;;;;;;5056302;28;20190;-68
2022/11/22 09:26:00;;;;;;;10.10;5.37;;;6.80;99.90;;;;;;5056477;28;20198;-68
2022/11/22 09:28:27;;;;;;;9.73;5.23;;;6.90;99.90;;;;;;5055919;28;20245;-68
2022/11/22 09:31:07;;;;;;;12.00;5.70;;;6.90;99.90;;;;;;5056104;28;20254;-68
2022/11/22 09:33:34;;;;;;;6.53;5.10;;;7.00;99.90;;;;;;5054713;28;20235;-68
2022/11/22 09:36:02;;;;;;;8.17;5.67;;;7.10;99.90;;;;;;5054576;28;20666;-68
2022/11/22 09:38:29;;;;;;;11.93;5.53;;;7.20;99.90;;;;;;5050767;28;20215;-68
2022/11/22 09:40:55;;;;;;;13.27;5.80;;;7.30;99.90;;;;;;5034774;28;20735;-68
2022/11/22 09:43:52;;;;;;;13.83;5.30;;;7.40;99.90;;;;;;5035071;28;20281;-68
2022/11/22 09:46:30;;;;;;;6.23;5.07;;;7.50;99.90;;;;;;5032104;28;20195;-68
2022/11/22 09:49:13;;;;;;;9.53;5.37;;;7.50;99.90;;;;;;5035703;28;20547;-68
2022/11/22 09:51:49;;;;;;;6.30;4.80;;;7.60;99.90;;;;;;5035854;28;20209;-68
2022/11/22 09:54:45;;;;;;;12.50;5.20;;;7.60;99.90;;;;;;5035984;28;20702;-68
2022/11/22 09:57:36;;;;;;;12.17;5.30;;;7.70;99.90;;;;;;5023662;28;20183;-68
2022/11/22 10:00:17;;;;;;;8.63;4.60;;;7.80;99.90;;;;;;5035448;28;20199;-68
2022/11/22 10:02:51;;;;;;;8.90;5.20;;;7.80;99.90;;;;;;5034189;28;20171;-68
2022/11/22 10:05:32;;;;;;;8.07;4.40;;;7.90;99.90;;;;;;5035410;28;20191;-68
2022/11/22 10:08:06;;;;;;;12.00;5.30;;;8.00;99.90;;;;;;5038175;28;20174;-68
2022/11/22 10:10:39;;;;;;;6.63;4.93;;;8.00;99.90;;;;;;5055320;28;20614;-68
2022/11/22 10:13:18;;;;;;;12.27;5.30;;;8.10;99.90;;;;;;5053894;28;20166;-68
2022/11/22 10:15:52;;;;;;;12.03;4.97;;;8.20;99.90;;;;;;5048400;28;20183;-68
2022/11/22 10:18:55;;;;;;;7.13;5.00;;;8.30;99.90;;;;;;5035057;28;20569;-68
2022/11/22 10:21:20;;;;;;;7.70;5.10;;;8.30;99.90;;;;;;5035265;28;20305;-68
2022/11/22 10:23:47;;;;;;;9.80;4.77;;;8.30;99.90;;;;;;5017342;28;20634;-68
2022/11/22 10:26:24;;;;;;;6.13;4.73;;;8.40;99.90;;;;;;5035084;28;20175;-68
2022/11/22 10:28:55;;;;;;;10.37;4.57;;;8.50;99.90;;;;;;5034980;28;20194;-68
2022/11/22 10:32:07;;;;;;;8.77;5.27;;;8.60;99.90;;;;;;5017239;28;20240;-68
2022/11/22 10:34:43;;;;;;;9.27;5.00;;;8.60;99.90;;;;;;4993351;28;20705;-68
2022/11/22 10:37:19;;;;;;;8.20;5.00;;;8.60;99.90;;;;;;5014356;28;20190;-68
2022/11/22 10:40:12;;;;;;;6.03;4.70;;;8.50;99.90;;;;;;5013613;28;20266;-68
2022/11/22 10:43:03;;;;;;;11.77;4.80;;;8.50;99.90;;;;;;4997218;28;20210;-68
2022/11/22 10:45:34;;;;;;;10.57;5.40;;;8.50;99.90;;;;;;5015394;28;20192;-66
2022/11/22 10:48:30;;;;;;;11.00;5.30;;;8.70;99.90;;;;;;5014583;28;20218;-66
2022/11/22 10:51:19;;;;;;;6.23;4.60;;;8.70;99.90;;;;;;4997072;28;20237;-66
2022/11/22 10:53:54;;;;;;;8.17;4.37;;;8.80;99.90;;;;;;5014677;28;20175;-66
2022/11/22 10:56:29;;;;;;;6.80;4.87;;;8.90;99.90;;;;;;5014685;28;20243;-70
2022/11/22 10:59:26;;;;;;;13.40;5.57;;;8.90;99.90;;;;;;4996977;28;20196;-66
2022/11/22 11:02:36;;;;;;;5.37;4.40;;;9.10;99.90;;;;;;5015089;28;20210;-69
2022/11/22 11:05:06;;;;;;;8.57;4.87;;;9.00;99.90;;;;;;4996764;28;20226;-65
2022/11/22 11:07:32;;;;;;;19.23;7.63;;;8.80;99.90;;;;;;5014523;28;20161;-66
2022/11/22 11:10:03;;;;;;;5.33;4.57;;;8.70;99.90;;;;;;5033529;28;20203;-66
2022/11/22 11:12:55;;;;;;;13.17;5.33;;;8.50;99.90;;;;;;5034056;28;20190;-65
2022/11/22 11:15:42;;;;;;;7.27;4.00;;;8.40;99.90;;;;;;5034154;28;20249;-66
2022/11/22 11:18:21;;;;;;;7.57;4.30;;;8.30;99.90;;;;;;5016131;28;20179;-66
2022/11/22 11:20:47;;;;;;;8.37;4.43;;;8.50;99.90;;;;;;5016322;28;20175;-67
2022/11/22 11:23:14;;;;;;;8.03;4.90;;;8.60;99.90;;;;;;5016117;28;20716;-67
2022/11/22 11:25:42;;;;;;;6.37;4.77;;;8.60;99.90;;;;;;5033959;28;20221;-67
2022/11/22 11:28:20;;;;;;;6.10;4.40;;;8.60;99.90;;;;;;5033761;28;20547;-66
2022/11/22 11:30:57;;;;;;;8.03;4.47;;;8.70;99.90;;;;;;5016198;28;20210;-68
2022/11/22 11:33:29;;;;;;;7.67;4.03;;;8.90;99.90;;;;;;5034189;28;20179;-68
2022/11/22 11:36:17;;;;;;;5.97;4.30;;;9.00;99.90;;;;;;5033885;28;20179;-68
2022/11/22 11:38:43;;;;;;;5.57;4.27;;;9.10;99.90;;;;;;5033571;28;20203;-68
2022/11/22 11:41:27;;;;;;;9.77;4.40;;;9.20;99.90;;;;;;5033593;28;20201;-68
2022/11/22 11:43:56;;;;;;;8.00;3.97;;;9.30;99.90;;;;;;5015883;28;20175;-68
2022/11/22 11:46:27;;;;;;;6.47;4.10;;;9.30;99.90;;;;;;5033549;28;20171;-68
2022/11/22 11:49:14;;;;;;;4.13;3.80;;;9.40;99.90;;;;;;5033670;28;20187;-68
2022/11/22 11:51:45;;;;;;;4.10;3.70;;;9.30;99.90;;;;;;5015288;28;20183;-67
2022/11/22 11:54:25;;;;;;;6.83;3.50;;;9.50;99.90;;;;;;5034012;28;20167;-68
2022/11/22 11:56:57;;;;;;;5.77;3.80;;;9.60;99.90;;;;;;5033453;28;20159;-69
2022/11/22 11:59:35;;;;;;;6.10;3.87;;;9.60;99.90;;;;;;5033310;28;20195;-69
2022/11/22 12:02:13;;;;;;;6.97;3.80;;;9.80;99.90;;;;;;5033429;28;20178;-69
2022/11/22 12:05:05;;;;;;;5.17;3.73;;;9.90;99.90;;;;;;5033793;28;20209;-69
2022/11/22 12:07:33;;;;;;;5.43;3.83;;;10.10;99.90;;;;;;5033257;28;20159;-70
2022/11/22 12:10:00;;;;;;;7.93;3.93;;;10.00;99.90;;;;;;5033333;28;20209;-69
2022/11/22 12:12:45;;;;;;;7.03;3.13;;;10.20;99.90;;;;;;5033687;28;20179;-70
2022/11/22 12:15:19;;;;;;;5.67;4.20;;;10.20;99.90;;;;;;5033458;28;20171;-70
2022/11/22 12:17:58;;;;;;;5.20;3.93;;;10.00;99.90;;;;;;5033591;28;20166;-67
2022/11/22 12:21:04;;;;;;;7.47;4.00;;;9.80;99.90;;;;;;5033490;28;20163;-67
2022/11/22 12:23:50;;;;;;;5.17;3.53;;;9.80;99.90;;;;;;5032943;28;20201;-70
2022/11/22 12:26:17;;;;;;;4.07;3.67;;;9.80;99.90;;;;;;5033193;28;20201;-68
2022/11/22 12:28:43;;;;;;;5.93;3.60;;;9.90;99.90;;;;;;5033409;28;20290;-69
2022/11/22 12:31:17;;;;;;;4.40;3.90;;;9.60;99.90;;;;;;5015601;28;20171;-68
2022/11/22 12:33:49;;;;;;;4.27;3.80;;;9.40;99.90;;;;;;5033151;28;20155;-68
2022/11/22 12:36:24;;;;;;;4.37;3.97;;;9.40;99.90;;;;;;5015579;28;20241;-68
2022/11/22 12:38:51;;;;;;;4.37;3.97;;;9.40;99.90;;;;;;5033401;28;20198;-68
2022/11/22 12:41:20;;;;;;;6.13;3.77;;;9.30;99.90;;;;;;5015325;28;20206;-68
2022/11/22 12:43:53;;;;;;;6.93;3.87;;;9.50;99.90;;;;;;5015347;28;20179;-68
2022/11/22 12:46:28;;;;;;;4.73;3.80;;;9.60;99.90;;;;;;5033048;28;20235;-68
2022/11/22 12:49:14;;;;;;;4.50;4.00;;;9.70;99.90;;;;;;5015183;28;20195;-68
2022/11/22 12:51:48;;;;;;;4.97;3.70;;;9.60;99.90;;;;;;5014912;28;20209;-68
2022/11/22 12:54:18;;;;;;;4.20;3.80;;;9.40;99.90;;;;;;5015247;28;20267;-68
2022/11/22 12:56:52;;;;;;;4.73;3.77;;;9.30;99.90;;;;;;5032969;28;20168;-68
2022/11/22 13:00:03;;;;;;;10.43;4.10;;;9.10;99.90;;;;;;5032930;28;20298;-67
2022/11/22 13:02:52;;;;;;;5.93;3.63;;;8.80;99.90;;;;;;5022003;28;20660;-68
2022/11/22 13:05:23;;;;;;;4.70;4.10;;;8.60;99.90;;;;;;5013656;28;20305;-68
2022/11/22 13:07:52;;;;;;;5.87;4.20;;;8.50;99.90;;;;;;5014855;28;20648;-67
2022/11/22 13:10:48;;;;;;;7.27;3.83;;;8.60;99.90;;;;;;5032965;28;20195;-68
2022/11/22 13:13:23;;;;;;;4.63;4.23;;;8.70;99.90;;;;;;5017652;28;20601;-66
2022/11/22 13:15:51;;;;;;;5.10;3.83;;;8.70;99.90;;;;;;5036503;28;20810;-68
2022/11/22 13:18:17;;;;;;;5.63;3.60;;;8.80;99.90;;;;;;5036409;28;20195;-67
2022/11/22 13:21:05;;;;;;;3.87;3.50;;;8.60;99.90;;;;;;5037323;28;20491;-69
2022/11/22 13:23:33;;;;;;;4.27;3.83;;;8.60;99.90;;;;;;5036418;28;20167;-68